createdAt,value
2019-05-01T00:00:16.050Z,88.30
2019-05-01T00:03:02.633Z,88.20
2019-05-01T00:05:33.587Z,88.10
2019-05-01T00:08:01.379Z,88.20
2019-05-01T00:10:29.582Z,88.30
2019-05-01T00:12:57.459Z,88.40
2019-05-01T00:15:28.382Z,88.50
2019-05-01T00:17:55.943Z,88.60
2019-05-01T00:20:23.237Z,88.80
2019-05-01T00:22:51.119Z,88.80
2019-05-01T00:25:18.545Z,88.80
2019-05-01T00:27:45.966Z,89.00
2019-05-01T00:30:16.043Z,89.10
2019-05-01T00:32:45.904Z,89.10
2019-05-01T00:35:13.844Z,89.10
2019-05-01T00:37:42.602Z,89.10
2019-05-01T00:40:10.183Z,88.80
2019-05-01T00:42:38.021Z,88.90
2019-05-01T00:45:05.476Z,89.00
2019-05-01T00:47:33.139Z,89.00
2019-05-01T00:50:00.927Z,89.70
2019-05-01T00:52:28.796Z,89.80
2019-05-01T00:55:16.964Z,89.10
2019-05-01T00:57:52.099Z,89.00
2019-05-01T01:00:44.920Z,89.00
2019-05-01T01:03:13.288Z,89.10
2019-05-01T01:05:41.182Z,88.90
2019-05-01T01:08:08.794Z,88.90
2019-05-01T01:10:36.479Z,88.80
2019-05-01T01:13:05.005Z,88.70
2019-05-01T01:15:32.744Z,88.70
2019-05-01T01:18:01.174Z,88.70
2019-05-01T01:20:29.273Z,88.80
2019-05-01T01:22:57.269Z,88.80
2019-05-01T01:25:26.257Z,88.70
2019-05-01T01:27:53.714Z,88.70
2019-05-01T01:30:21.627Z,88.30
2019-05-01T01:32:49.319Z,88.70
2019-05-01T01:35:16.984Z,88.70
2019-05-01T01:37:44.517Z,88.60
2019-05-01T01:40:12.165Z,88.50
2019-05-01T01:42:41.330Z,88.30
2019-05-01T01:45:26.386Z,88.50
2019-05-01T01:48:10.553Z,88.20
2019-05-01T01:50:39.647Z,88.60
2019-05-01T01:53:08.395Z,88.60
2019-05-01T01:55:36.876Z,88.50
2019-05-01T01:58:05.226Z,88.80
2019-05-01T02:00:52.387Z,88.60
2019-05-01T02:03:21.340Z,88.50
2019-05-01T02:05:48.959Z,88.60
2019-05-01T02:08:16.419Z,88.80
2019-05-01T02:10:44.073Z,88.60
2019-05-01T02:13:11.511Z,88.50
2019-05-01T02:15:39.463Z,88.50
2019-05-01T02:18:06.821Z,88.60
2019-05-01T02:20:34.824Z,88.70
2019-05-01T02:23:02.247Z,88.60
2019-05-01T02:25:31.362Z,88.60
2019-05-01T02:28:34.368Z,88.80
2019-05-01T02:31:28.015Z,88.60
2019-05-01T02:33:51.646Z,88.60
2019-05-01T02:36:22.366Z,88.60
2019-05-01T02:38:52.451Z,88.60
2019-05-01T02:41:21.963Z,88.50
2019-05-01T02:43:52.509Z,88.40
2019-05-01T02:46:21.933Z,88.50
2019-05-01T02:48:55.569Z,88.50
2019-05-01T02:51:25.756Z,88.60
2019-05-01T02:53:54.643Z,88.60
2019-05-01T02:56:31.779Z,88.60
2019-05-01T02:59:01.174Z,88.40
2019-05-01T03:01:45.401Z,88.50
2019-05-01T03:03:59.014Z,88.40
2019-05-01T03:06:29.187Z,88.50
2019-05-01T03:08:57.962Z,88.50
2019-05-01T03:11:28.320Z,88.40
2019-05-01T03:13:59.650Z,88.50
2019-05-01T03:16:29.307Z,88.60
2019-05-01T03:18:59.409Z,88.50
2019-05-01T03:21:47.033Z,88.60
2019-05-01T03:24:18.355Z,88.40
2019-05-01T03:26:46.330Z,88.30
2019-05-01T03:29:14.275Z,88.30
2019-05-01T03:31:42.463Z,88.20
2019-05-01T03:34:10.366Z,88.40
2019-05-01T03:36:39.681Z,88.30
2019-05-01T03:39:08.580Z,88.30
2019-05-01T03:41:36.950Z,88.30
2019-05-01T03:44:05.689Z,88.30
2019-05-01T03:46:34.282Z,88.40
2019-05-01T03:49:02.770Z,88.50
2019-05-01T03:51:30.717Z,88.50
2019-05-01T03:53:58.676Z,88.40
2019-05-01T03:56:27.612Z,88.50
2019-05-01T03:58:55.885Z,88.70
2019-05-01T04:01:50.300Z,89.10
2019-05-01T04:04:21.310Z,89.40
2019-05-01T04:06:49.889Z,89.60
2019-05-01T04:09:17.945Z,90.00
2019-05-01T04:11:46.018Z,90.00
2019-05-01T04:14:14.047Z,90.20
2019-05-01T04:16:45.211Z,90.40
2019-05-01T04:19:13.386Z,90.40
2019-05-01T04:21:47.211Z,90.60
2019-05-01T04:24:17.047Z,90.70
2019-05-01T04:26:44.786Z,91.00
2019-05-01T04:29:40.668Z,90.90
2019-05-01T04:32:17.095Z,91.00
2019-05-01T04:34:58.811Z,91.20
2019-05-01T04:37:26.844Z,91.20
2019-05-01T04:39:54.396Z,91.30
2019-05-01T04:42:22.576Z,91.30
2019-05-01T04:44:51.365Z,91.20
2019-05-01T04:47:19.251Z,91.20
2019-05-01T04:49:46.896Z,91.50
2019-05-01T04:52:15.024Z,91.10
2019-05-01T04:54:46.413Z,91.20
2019-05-01T04:57:14.481Z,91.30
2019-05-01T04:59:42.868Z,91.40
2019-05-01T05:02:13.014Z,91.50
2019-05-01T05:04:41.156Z,91.50
2019-05-01T05:07:10.262Z,91.50
2019-05-01T05:09:46.165Z,91.50
2019-05-01T05:12:52.792Z,91.50
2019-05-01T05:15:40.948Z,91.50
2019-05-01T05:18:09.305Z,91.60
2019-05-01T05:20:37.383Z,91.70
2019-05-01T05:23:04.851Z,91.80
2019-05-01T05:25:34.038Z,91.90
2019-05-01T05:28:02.578Z,92.00
2019-05-01T05:30:33.016Z,92.10
2019-05-01T05:33:17.080Z,92.20
2019-05-01T05:35:37.168Z,92.20
2019-05-01T05:38:17.125Z,92.30
2019-05-01T05:40:45.306Z,92.30
2019-05-01T05:43:13.370Z,92.40
2019-05-01T05:45:41.723Z,92.50
2019-05-01T05:48:09.937Z,92.60
2019-05-01T05:50:47.049Z,92.70
2019-05-01T05:53:18.138Z,92.80
2019-05-01T05:55:51.783Z,92.80
2019-05-01T05:58:27.814Z,93.00
2019-05-01T06:01:10.408Z,93.10
2019-05-01T06:04:15.319Z,93.20
2019-05-01T06:07:22.851Z,93.30
2019-05-01T06:10:12.730Z,93.30
2019-05-01T06:12:57.772Z,93.50
2019-05-01T06:15:41.271Z,93.60
2019-05-01T06:18:12.380Z,93.60
2019-05-01T06:21:02.263Z,93.60
2019-05-01T06:23:35.069Z,93.70
2019-05-01T06:26:21.823Z,93.70
2019-05-01T06:28:50.249Z,93.70
2019-05-01T06:31:23.228Z,93.60
2019-05-01T06:33:53.051Z,93.70
2019-05-01T06:36:19.062Z,93.80
2019-05-01T06:38:47.105Z,93.80
2019-05-01T06:41:16.679Z,93.80
2019-05-01T06:44:07.593Z,93.60
2019-05-01T06:46:58.072Z,93.70
2019-05-01T06:49:43.433Z,93.80
2019-05-01T06:52:13.469Z,93.90
2019-05-01T06:54:41.808Z,94.00
2019-05-01T06:57:09.976Z,94.00
2019-05-01T06:59:39.278Z,93.90
2019-05-01T07:02:10.928Z,94.10
2019-05-01T07:04:42.346Z,94.10
2019-05-01T07:07:25.312Z,94.20
2019-05-01T07:09:48.781Z,94.00
2019-05-01T07:12:19.377Z,94.10
2019-05-01T07:14:50.897Z,94.20
2019-05-01T07:17:17.515Z,94.20
2019-05-01T07:20:04.497Z,94.20
2019-05-01T07:22:37.055Z,94.20
2019-05-01T07:25:06.183Z,94.20
2019-05-01T07:27:34.002Z,94.20
2019-05-01T07:30:11.549Z,94.40
2019-05-01T07:32:41.207Z,94.50
2019-05-01T07:35:10.344Z,94.50
2019-05-01T07:37:41.893Z,94.50
2019-05-01T07:40:10.834Z,94.40
2019-05-01T07:42:43.708Z,94.50
2019-05-01T07:45:38.982Z,94.80
2019-05-01T07:48:07.987Z,94.60
2019-05-01T07:50:36.317Z,94.50
2019-05-01T07:53:07.487Z,94.70
2019-05-01T07:55:35.682Z,94.70
2019-05-01T07:58:10.334Z,94.70
2019-05-01T08:01:03.165Z,94.40
2019-05-01T08:03:30.795Z,94.40
2019-05-01T08:05:59.018Z,94.50
2019-05-01T08:08:27.159Z,94.50
2019-05-01T08:10:59.970Z,94.60
2019-05-01T08:13:26.534Z,94.70
2019-05-01T08:15:54.383Z,94.70
2019-05-01T08:18:28.022Z,94.80
2019-05-01T08:21:31.455Z,94.50
2019-05-01T08:23:59.829Z,94.70
2019-05-01T08:26:31.207Z,94.70
2019-05-01T08:29:17.505Z,94.70
2019-05-01T08:31:58.912Z,94.80
2019-05-01T08:34:26.602Z,94.80
2019-05-01T08:36:55.350Z,94.80
2019-05-01T08:39:22.943Z,94.80
2019-05-01T08:41:51.770Z,94.90
2019-05-01T08:44:24.822Z,95.00
2019-05-01T08:47:14.507Z,94.80
2019-05-01T08:49:52.978Z,94.80
2019-05-01T08:52:21.473Z,94.80
2019-05-01T08:54:49.202Z,94.80
2019-05-01T08:57:17.799Z,95.10
2019-05-01T08:59:45.732Z,94.70
2019-05-01T09:02:14.106Z,94.70
2019-05-01T09:04:42.088Z,94.60
2019-05-01T09:07:10.526Z,94.60
2019-05-01T09:09:39.810Z,94.60
2019-05-01T09:12:11.846Z,94.30
2019-05-01T09:14:38.611Z,94.50
2019-05-01T09:17:06.961Z,94.40
2019-05-01T09:19:35.326Z,94.40
2019-05-01T09:22:03.600Z,94.40
2019-05-01T09:24:31.319Z,94.40
2019-05-01T09:27:18.831Z,94.60
2019-05-01T09:29:51.536Z,94.60
2019-05-01T09:32:18.784Z,94.60
2019-05-01T09:34:46.582Z,94.70
2019-05-01T09:37:14.623Z,94.60
2019-05-01T09:39:42.601Z,94.60
2019-05-01T09:42:11.028Z,94.70
2019-05-01T09:44:38.660Z,94.60
2019-05-01T09:47:06.843Z,94.60
2019-05-01T09:49:35.009Z,94.60
2019-05-01T09:52:23.397Z,94.60
2019-05-01T09:54:55.142Z,94.60
2019-05-01T09:57:23.014Z,94.60
2019-05-01T09:59:52.091Z,94.50
2019-05-01T10:02:20.125Z,94.50
2019-05-01T10:04:48.120Z,94.60
2019-05-01T10:07:16.066Z,94.60
2019-05-01T10:09:47.221Z,94.50
2019-05-01T10:12:23.250Z,94.50
2019-05-01T10:14:54.170Z,94.40
2019-05-01T10:17:25.030Z,94.40
2019-05-01T10:19:52.985Z,94.40
2019-05-01T10:22:20.675Z,94.30
2019-05-01T10:24:48.641Z,94.20
2019-05-01T10:27:20.103Z,94.20
2019-05-01T10:30:13.665Z,94.30
2019-05-01T10:32:44.685Z,94.30
2019-05-01T10:35:41.836Z,94.20
2019-05-01T10:38:04.652Z,94.20
2019-05-01T10:40:32.329Z,94.30
2019-05-01T10:43:00.578Z,94.20
2019-05-01T10:45:28.927Z,94.20
2019-05-01T10:47:56.894Z,94.20
2019-05-01T10:50:24.547Z,94.10
2019-05-01T10:52:52.675Z,94.10
2019-05-01T10:55:23.550Z,94.20
2019-05-01T10:57:52.070Z,94.10
2019-05-01T11:00:20.045Z,94.10
2019-05-01T11:02:48.360Z,94.00
2019-05-01T11:05:16.731Z,94.00
2019-05-01T11:07:44.621Z,94.00
2019-05-01T11:10:21.925Z,94.00
2019-05-01T11:12:51.941Z,94.00
2019-05-01T11:15:20.058Z,93.70
2019-05-01T11:17:47.848Z,93.80
2019-05-01T11:20:15.972Z,93.80
2019-05-01T11:22:45.177Z,93.80
2019-05-01T11:25:15.481Z,93.90
2019-05-01T11:27:43.292Z,93.90
2019-05-01T11:30:13.143Z,94.00
2019-05-01T11:32:59.940Z,93.90
2019-05-01T11:35:47.089Z,93.90
2019-05-01T11:38:36.295Z,93.90
2019-05-01T11:41:27.060Z,93.90
2019-05-01T11:43:54.946Z,94.20
2019-05-01T11:46:22.923Z,93.90
2019-05-01T11:48:50.451Z,93.70
2019-05-01T11:51:20.704Z,93.80
2019-05-01T11:53:48.478Z,93.80
2019-05-01T11:56:16.947Z,93.80
2019-05-01T11:58:45.082Z,93.80
2019-05-01T12:01:15.152Z,93.80
2019-05-01T12:03:43.296Z,94.00
2019-05-01T12:06:22.382Z,94.00
2019-05-01T12:08:41.849Z,93.90
2019-05-01T12:11:10.783Z,94.10
2019-05-01T12:13:43.787Z,94.40
2019-05-01T12:16:23.273Z,93.70
2019-05-01T12:18:51.825Z,93.70
2019-05-01T12:21:20.086Z,93.80
2019-05-01T12:23:48.422Z,93.80
2019-05-01T12:26:16.277Z,93.80
2019-05-01T12:28:44.068Z,93.90
2019-05-01T12:31:11.681Z,93.90
2019-05-01T12:33:40.112Z,94.00
2019-05-01T12:36:08.558Z,94.10
2019-05-01T12:38:36.687Z,94.00
2019-05-01T12:41:22.288Z,93.90
2019-05-01T12:43:50.200Z,93.70
2019-05-01T12:46:41.789Z,93.70
2019-05-01T12:49:09.445Z,93.80
2019-05-01T12:51:38.188Z,93.80
2019-05-01T12:54:18.487Z,93.60
2019-05-01T12:56:50.092Z,93.70
2019-05-01T12:59:17.819Z,93.70
2019-05-01T13:01:45.818Z,93.50
2019-05-01T13:04:13.439Z,93.60
2019-05-01T13:06:49.238Z,93.60
2019-05-01T13:09:11.319Z,93.40
2019-05-01T13:11:39.134Z,93.30
2019-05-01T13:14:07.561Z,93.20
2019-05-01T13:16:35.914Z,93.20
2019-05-01T13:19:03.625Z,93.20
2019-05-01T13:21:31.598Z,93.30
2019-05-01T13:23:59.516Z,93.30
2019-05-01T13:26:39.177Z,93.30
2019-05-01T13:29:32.807Z,93.40
2019-05-01T13:32:29.127Z,93.30
2019-05-01T13:34:56.837Z,93.00
2019-05-01T13:37:25.515Z,92.90
2019-05-01T13:39:52.935Z,92.90
2019-05-01T13:42:21.143Z,92.80
2019-05-01T13:44:48.712Z,92.90
2019-05-01T13:47:16.959Z,92.80
2019-05-01T13:49:44.663Z,92.80
2019-05-01T13:52:12.879Z,92.80
2019-05-01T13:54:42.406Z,92.80
2019-05-01T13:57:10.777Z,92.80
2019-05-01T13:59:38.973Z,92.90
2019-05-01T14:02:07.518Z,93.00
2019-05-01T14:04:35.955Z,93.10
2019-05-01T14:07:15.764Z,92.70
2019-05-01T14:09:34.035Z,92.40
2019-05-01T14:12:01.567Z,92.50
2019-05-01T14:14:29.931Z,92.50
2019-05-01T14:16:57.644Z,92.50
2019-05-01T14:19:26.123Z,92.40
2019-05-01T14:22:19.693Z,92.10
2019-05-01T14:24:50.295Z,91.90
2019-05-01T14:27:18.377Z,92.00
2019-05-01T14:29:45.892Z,91.90
2019-05-01T14:32:13.501Z,92.00
2019-05-01T14:34:41.895Z,92.10
2019-05-01T14:37:10.501Z,92.00
2019-05-01T14:39:38.336Z,92.00
2019-05-01T14:42:06.946Z,92.00
2019-05-01T14:44:37.250Z,91.90
2019-05-01T14:47:05.375Z,91.80
2019-05-01T14:49:34.479Z,91.70
2019-05-01T14:52:02.243Z,91.70
2019-05-01T14:54:31.526Z,91.60
2019-05-01T14:56:59.037Z,91.70
2019-05-01T14:59:27.079Z,91.50
2019-05-01T15:01:54.751Z,91.40
2019-05-01T15:04:22.913Z,91.30
2019-05-01T15:06:50.819Z,91.30
2019-05-01T15:09:18.609Z,91.20
2019-05-01T15:11:45.975Z,91.20
2019-05-01T15:14:36.120Z,91.30
2019-05-01T15:17:16.959Z,90.70
2019-05-01T15:19:53.222Z,90.90
2019-05-01T15:22:20.829Z,90.30
2019-05-01T15:24:48.695Z,90.40
2019-05-01T15:27:16.639Z,90.70
2019-05-01T15:29:44.519Z,90.80
2019-05-01T15:32:12.262Z,90.80
2019-05-01T15:34:40.382Z,90.80
2019-05-01T15:37:08.160Z,90.40
2019-05-01T15:39:42.137Z,90.00
2019-05-01T15:42:36.287Z,90.00
2019-05-01T15:45:05.615Z,90.00
2019-05-01T15:47:34.350Z,89.40
2019-05-01T15:50:02.296Z,89.50
2019-05-01T15:52:30.446Z,89.20
2019-05-01T15:54:57.999Z,88.60
2019-05-01T15:57:29.047Z,88.40
2019-05-01T15:59:56.761Z,87.80
2019-05-01T16:02:25.086Z,87.50
2019-05-01T16:04:53.760Z,86.90
2019-05-01T16:07:22.699Z,86.50
2019-05-01T16:09:50.371Z,86.20
2019-05-01T16:12:35.419Z,86.90
2019-05-01T16:15:08.179Z,85.40
2019-05-01T16:17:36.303Z,84.80
2019-05-01T16:20:04.889Z,84.90
2019-05-01T16:22:33.064Z,85.00
2019-05-01T16:25:00.841Z,84.60
2019-05-01T16:27:28.745Z,84.60
2019-05-01T16:29:56.718Z,84.80
2019-05-01T16:32:24.454Z,84.50
2019-05-01T16:34:52.383Z,83.70
2019-05-01T16:37:20.371Z,83.70
2019-05-01T16:40:14.127Z,83.40
2019-05-01T16:42:42.403Z,83.40
2019-05-01T16:45:11.937Z,83.30
2019-05-01T16:47:40.313Z,83.60
2019-05-01T16:50:11.279Z,83.40
2019-05-01T16:52:40.459Z,83.20
2019-05-01T16:55:08.992Z,83.30
2019-05-01T16:57:36.610Z,83.60
2019-05-01T17:00:06.324Z,83.50
2019-05-01T17:03:08.615Z,83.20
2019-05-01T17:06:11.005Z,83.00
2019-05-01T17:08:58.182Z,83.00
2019-05-01T17:11:31.272Z,83.30
2019-05-01T17:13:59.353Z,83.20
2019-05-01T17:16:27.713Z,83.30
2019-05-01T17:18:56.043Z,83.50
2019-05-01T17:21:24.480Z,82.20
2019-05-01T17:23:52.389Z,82.20
2019-05-01T17:26:21.018Z,82.50
2019-05-01T17:28:49.068Z,82.40
2019-05-01T17:31:17.187Z,82.40
2019-05-01T17:33:46.102Z,82.50
2019-05-01T17:36:14.403Z,82.50
2019-05-01T17:38:49.667Z,82.50
2019-05-01T17:41:13.953Z,82.50
2019-05-01T17:43:44.722Z,82.70
2019-05-01T17:46:12.270Z,82.90
2019-05-01T17:48:41.786Z,83.00
2019-05-01T17:51:10.551Z,83.30
2019-05-01T17:53:39.151Z,83.30
2019-05-01T17:56:13.559Z,83.30
2019-05-01T17:58:37.956Z,83.40
2019-05-01T18:01:27.610Z,83.40
2019-05-01T18:04:17.002Z,83.60
2019-05-01T18:06:47.909Z,83.70
2019-05-01T18:09:16.469Z,84.00
2019-05-01T18:11:47.223Z,84.70
2019-05-01T18:14:15.323Z,83.70
2019-05-01T18:16:43.349Z,83.80
2019-05-01T18:19:11.490Z,83.80
2019-05-01T18:21:41.635Z,84.10
2019-05-01T18:24:30.767Z,84.30
2019-05-01T18:27:29.886Z,84.50
2019-05-01T18:30:00.903Z,84.80
2019-05-01T18:32:36.437Z,85.10
2019-05-01T18:35:08.877Z,85.30
2019-05-01T18:37:42.883Z,85.30
2019-05-01T18:40:17.891Z,85.70
2019-05-01T18:42:45.836Z,86.20
2019-05-01T18:45:30.586Z,86.00
2019-05-01T18:47:58.248Z,86.30
2019-05-01T18:50:28.624Z,86.50
2019-05-01T18:52:56.978Z,86.50
2019-05-01T18:55:25.918Z,86.80
2019-05-01T18:57:54.048Z,86.90
2019-05-01T19:00:21.919Z,87.30
2019-05-01T19:02:50.089Z,87.50
2019-05-01T19:05:18.224Z,87.40
2019-05-01T19:07:46.069Z,87.30
2019-05-01T19:10:13.874Z,87.30
2019-05-01T19:12:42.153Z,87.60
2019-05-01T19:15:10.282Z,87.70
2019-05-01T19:17:38.720Z,88.00
2019-05-01T19:20:07.089Z,88.20
2019-05-01T19:22:34.996Z,88.40
2019-05-01T19:25:03.148Z,88.50
2019-05-01T19:27:31.229Z,88.60
2019-05-01T19:29:59.493Z,88.40
2019-05-01T19:32:29.069Z,88.30
2019-05-01T19:34:57.815Z,88.30
2019-05-01T19:37:28.350Z,88.30
2019-05-01T19:39:55.534Z,87.90
2019-05-01T19:42:23.685Z,87.80
2019-05-01T19:44:56.071Z,87.60
2019-05-01T19:47:21.709Z,87.60
2019-05-01T19:49:49.382Z,87.80
2019-05-01T19:52:17.701Z,88.00
2019-05-01T19:54:46.171Z,88.00
2019-05-01T19:57:13.866Z,88.10
2019-05-01T19:59:41.639Z,88.20
2019-05-01T20:02:11.550Z,88.10
2019-05-01T20:04:39.456Z,88.10
2019-05-01T20:07:10.649Z,88.00
2019-05-01T20:09:36.975Z,88.00
2019-05-01T20:12:05.685Z,88.00
2019-05-01T20:14:33.435Z,87.90
2019-05-01T20:17:04.820Z,87.60
2019-05-01T20:19:30.499Z,87.20
2019-05-01T20:21:58.490Z,87.10
2019-05-01T20:24:26.294Z,86.90
2019-05-01T20:26:54.306Z,86.70
2019-05-01T20:29:22.436Z,86.70
2019-05-01T20:31:51.693Z,86.50
2019-05-01T20:34:19.491Z,86.50
2019-05-01T20:36:47.423Z,86.40
2019-05-01T20:39:14.938Z,86.50
2019-05-01T20:41:42.722Z,86.50
2019-05-01T20:44:10.255Z,86.50
2019-05-01T20:46:38.262Z,86.50
2019-05-01T20:49:06.581Z,86.30
2019-05-01T20:51:34.053Z,86.20
2019-05-01T20:54:01.873Z,86.10
2019-05-01T20:56:37.379Z,86.10
2019-05-01T20:59:04.998Z,86.20
2019-05-01T21:01:32.871Z,86.10
2019-05-01T21:04:14.695Z,86.00
2019-05-01T21:06:45.703Z,86.00
2019-05-01T21:09:17.027Z,86.70
2019-05-01T21:11:47.554Z,85.70
2019-05-01T21:14:22.366Z,85.60
2019-05-01T21:16:45.923Z,85.40
2019-05-01T21:19:13.892Z,85.20
2019-05-01T21:21:42.979Z,85.10
2019-05-01T21:24:10.786Z,85.00
2019-05-01T21:26:38.263Z,84.80
2019-05-01T21:29:05.820Z,84.80
2019-05-01T21:31:34.162Z,84.60
2019-05-01T21:34:04.033Z,84.30
2019-05-01T21:36:31.617Z,84.30
2019-05-01T21:38:59.127Z,84.40
2019-05-01T21:41:26.991Z,84.40
2019-05-01T21:43:54.966Z,84.40
2019-05-01T21:46:22.795Z,84.60
2019-05-01T21:48:50.674Z,84.60
2019-05-01T21:51:18.363Z,84.80
2019-05-01T21:53:46.659Z,84.80
2019-05-01T21:56:14.482Z,84.90
2019-05-01T21:58:42.034Z,85.00
2019-05-01T22:01:10.915Z,85.10
2019-05-01T22:03:38.347Z,85.00
2019-05-01T22:06:10.968Z,85.30
2019-05-01T22:08:39.231Z,85.30
2019-05-01T22:11:06.895Z,85.40
2019-05-01T22:13:34.614Z,85.30
2019-05-01T22:16:18.426Z,84.80
2019-05-01T22:18:55.744Z,85.30
2019-05-01T22:21:29.572Z,85.40
2019-05-01T22:24:16.768Z,85.50
2019-05-01T22:26:50.818Z,85.50
2019-05-01T22:29:20.494Z,85.50
2019-05-01T22:31:57.486Z,85.60
2019-05-01T22:34:48.316Z,85.70
2019-05-01T22:37:16.511Z,85.80
2019-05-01T22:39:46.883Z,85.80
2019-05-01T22:42:14.791Z,85.80
2019-05-01T22:44:42.417Z,85.80
2019-05-01T22:47:15.139Z,85.90
2019-05-01T22:49:40.131Z,86.40
2019-05-01T22:52:07.775Z,85.90
2019-05-01T22:54:35.329Z,86.00
2019-05-01T22:57:03.375Z,86.10
2019-05-01T22:59:31.628Z,86.10
2019-05-01T23:02:18.916Z,86.00
2019-05-01T23:04:48.300Z,86.00
2019-05-01T23:07:18.561Z,86.10
2019-05-01T23:09:46.123Z,85.90
2019-05-01T23:12:14.204Z,85.90
2019-05-01T23:14:41.802Z,85.70
2019-05-01T23:17:21.104Z,85.80
2019-05-01T23:19:48.848Z,85.90
2019-05-01T23:22:17.099Z,85.90
2019-05-01T23:24:44.629Z,85.90
2019-05-01T23:27:12.387Z,86.00
2019-05-01T23:29:39.935Z,86.10
2019-05-01T23:32:07.713Z,86.10
2019-05-01T23:34:35.096Z,86.20
2019-05-01T23:37:02.753Z,86.00
2019-05-01T23:39:39.785Z,86.10
2019-05-01T23:42:01.022Z,86.20
2019-05-01T23:44:28.967Z,86.20
2019-05-01T23:46:56.755Z,86.10
2019-05-01T23:49:24.301Z,86.10
2019-05-01T23:51:52.064Z,86.10
2019-05-01T23:54:19.936Z,86.20
2019-05-01T23:56:48.160Z,86.70
2019-05-01T23:59:16.217Z,86.20
